createdAt,value
2023-03-12T00:00:42.555Z,2.63
2023-03-12T00:03:11.135Z,2.60
2023-03-12T00:05:41.795Z,5.33
2023-03-12T00:08:11.028Z,1.83
2023-03-12T00:10:41.376Z,2.77
2023-03-12T00:13:09.818Z,2.03
2023-03-12T00:15:39.085Z,7.27
2023-03-12T00:18:07.581Z,4.60
2023-03-12T00:20:36.028Z,2.40
2023-03-12T00:23:05.719Z,3.97
2023-03-12T00:25:34.126Z,5.40
2023-03-12T00:28:02.471Z,3.57
2023-03-12T00:30:30.814Z,4.20
2023-03-12T00:32:59.087Z,2.67
2023-03-12T00:35:27.399Z,4.97
2023-03-12T00:37:55.730Z,2.57
2023-03-12T00:40:25.448Z,2.53
2023-03-12T00:42:53.723Z,3.07
2023-03-12T00:45:22.106Z,2.97
2023-03-12T00:47:51.030Z,7.80
2023-03-12T00:50:19.452Z,3.77
2023-03-12T00:52:47.810Z,3.53
2023-03-12T00:55:16.216Z,5.57
2023-03-12T00:57:45.946Z,1.83
2023-03-12T01:00:15.032Z,5.83
2023-03-12T01:02:43.311Z,4.73
2023-03-12T01:05:14.157Z,6.27
2023-03-12T01:07:42.742Z,2.87
2023-03-12T01:10:13.304Z,4.00
2023-03-12T01:12:41.798Z,3.50
2023-03-12T01:15:14.332Z,5.73
2023-03-12T01:17:42.690Z,10.47
2023-03-12T01:20:12.522Z,5.83
2023-03-12T01:22:41.084Z,4.97
2023-03-12T01:25:10.252Z,3.63
2023-03-12T01:27:38.488Z,11.27
2023-03-12T01:30:08.081Z,13.50
2023-03-12T01:32:38.073Z,4.53
2023-03-12T01:35:07.336Z,4.20
2023-03-12T01:37:35.832Z,8.43
2023-03-12T01:40:04.857Z,5.37
2023-03-12T01:42:33.138Z,6.60
2023-03-12T01:45:04.393Z,4.90
2023-03-12T01:47:33.066Z,7.10
2023-03-12T01:50:03.533Z,5.17
2023-03-12T01:52:35.104Z,6.43
2023-03-12T01:55:06.771Z,7.87
2023-03-12T01:57:39.184Z,3.73
2023-03-12T02:00:11.989Z,5.20
2023-03-12T02:02:41.258Z,4.33
2023-03-12T02:05:16.987Z,5.23
2023-03-12T02:07:45.444Z,4.47
2023-03-12T02:10:14.275Z,12.37
2023-03-12T02:12:42.572Z,8.73
2023-03-12T02:15:11.907Z,6.73
2023-03-12T02:17:40.680Z,10.03
2023-03-12T02:20:18.430Z,5.70
2023-03-12T02:22:52.632Z,8.90
2023-03-12T02:25:31.406Z,5.30
2023-03-12T02:28:01.727Z,5.20
2023-03-12T02:30:32.133Z,6.73
2023-03-12T02:33:02.697Z,10.60
2023-03-12T02:35:31.031Z,7.83
2023-03-12T02:37:59.583Z,8.83
2023-03-12T02:40:36.764Z,7.17
2023-03-12T02:43:08.943Z,10.67
2023-03-12T02:45:38.088Z,7.03
2023-03-12T02:48:10.221Z,5.83
2023-03-12T02:50:38.559Z,5.23
2023-03-12T02:53:06.882Z,6.53
2023-03-12T02:55:36.598Z,5.07
2023-03-12T02:58:04.860Z,6.93
2023-03-12T03:00:33.201Z,6.63
2023-03-12T03:03:01.780Z,4.30
2023-03-12T03:05:30.093Z,5.60
2023-03-12T03:07:58.423Z,5.87
2023-03-12T03:10:26.735Z,6.03
2023-03-12T03:12:57.800Z,6.57
2023-03-12T03:15:26.361Z,8.87
2023-03-12T03:17:54.682Z,15.17
2023-03-12T03:20:24.764Z,5.73
2023-03-12T03:22:53.240Z,5.60
2023-03-12T03:25:23.742Z,5.93
2023-03-12T03:27:52.062Z,8.67
2023-03-12T03:30:22.438Z,8.00
2023-03-12T03:32:51.031Z,5.37
2023-03-12T03:35:19.837Z,5.77
2023-03-12T03:37:48.087Z,7.53
2023-03-12T03:40:16.376Z,8.20
2023-03-12T03:42:44.676Z,6.00
2023-03-12T03:45:13.106Z,6.73
2023-03-12T03:47:42.851Z,9.00
2023-03-12T03:50:12.713Z,8.30
2023-03-12T03:52:41.017Z,4.50
2023-03-12T03:55:10.091Z,4.50
2023-03-12T03:57:38.401Z,5.77
2023-03-12T04:00:09.948Z,7.43
2023-03-12T04:02:38.262Z,6.20
2023-03-12T04:05:08.847Z,10.70
2023-03-12T04:07:37.228Z,7.10
2023-03-12T04:10:06.206Z,6.20
2023-03-12T04:12:34.516Z,5.10
2023-03-12T04:15:02.916Z,9.03
2023-03-12T04:17:31.258Z,3.70
2023-03-12T04:19:59.596Z,5.27
2023-03-12T04:22:29.221Z,6.27
2023-03-12T04:24:57.592Z,6.40
2023-03-12T04:27:25.883Z,7.90
2023-03-12T04:29:54.205Z,9.37
2023-03-12T04:32:22.624Z,8.97
2023-03-12T04:34:50.933Z,9.90
2023-03-12T04:37:19.256Z,8.23
2023-03-12T04:39:49.105Z,4.97
2023-03-12T04:42:17.344Z,9.83
2023-03-12T04:44:45.681Z,10.60
2023-03-12T04:47:13.951Z,5.13
2023-03-12T04:49:42.270Z,9.90
2023-03-12T04:52:10.631Z,3.83
2023-03-12T04:54:38.928Z,6.83
2023-03-12T04:57:08.654Z,10.73
2023-03-12T04:59:37.032Z,5.33
2023-03-12T05:02:05.425Z,4.83
2023-03-12T05:04:33.899Z,4.70
2023-03-12T05:07:02.197Z,4.60
2023-03-12T05:09:30.699Z,5.53
2023-03-12T05:11:58.986Z,6.73
2023-03-12T05:14:28.773Z,6.40
2023-03-12T05:16:57.089Z,9.63
2023-03-12T05:19:25.344Z,6.47
2023-03-12T05:21:53.630Z,4.70
2023-03-12T05:24:22.772Z,5.97
2023-03-12T05:26:51.138Z,4.30
2023-03-12T05:29:19.451Z,12.73
2023-03-12T05:31:50.044Z,6.67
2023-03-12T05:34:18.631Z,4.73
2023-03-12T05:36:47.686Z,5.13
2023-03-12T05:39:15.919Z,8.37
2023-03-12T05:41:44.192Z,3.80
2023-03-12T05:44:13.533Z,5.63
2023-03-12T05:46:41.828Z,5.47
2023-03-12T05:49:11.713Z,5.47
2023-03-12T05:51:40.050Z,6.57
2023-03-12T05:54:08.497Z,6.00
2023-03-12T05:56:38.300Z,4.77
2023-03-12T05:59:07.446Z,3.73
2023-03-12T06:01:35.724Z,15.03
2023-03-12T06:04:04.092Z,4.60
2023-03-12T06:06:38.528Z,5.43
2023-03-12T06:09:07.315Z,7.50
2023-03-12T06:11:36.228Z,7.27
2023-03-12T06:14:04.849Z,4.57
2023-03-12T06:16:33.350Z,7.73
2023-03-12T06:19:04.209Z,9.80
2023-03-12T06:21:36.075Z,3.63
2023-03-12T06:24:04.792Z,6.17
2023-03-12T06:26:33.106Z,10.63
2023-03-12T06:29:02.597Z,4.40
2023-03-12T06:31:31.003Z,6.87
2023-03-12T06:33:59.385Z,6.87
2023-03-12T06:36:27.734Z,8.47
2023-03-12T06:38:57.543Z,4.10
2023-03-12T06:41:25.835Z,9.63
2023-03-12T06:43:54.321Z,4.03
2023-03-12T06:46:25.318Z,3.73
2023-03-12T06:48:53.692Z,6.23
2023-03-12T06:51:22.226Z,4.07
2023-03-12T06:53:50.556Z,6.57
2023-03-12T06:56:20.505Z,6.03
2023-03-12T06:58:48.899Z,11.50
2023-03-12T07:01:17.254Z,6.60
2023-03-12T07:03:45.710Z,8.50
2023-03-12T07:06:15.738Z,4.83
2023-03-12T07:08:44.491Z,8.30
2023-03-12T07:11:13.765Z,8.90
2023-03-12T07:13:43.692Z,5.67
2023-03-12T07:16:12.421Z,4.17
2023-03-12T07:18:40.751Z,5.20
2023-03-12T07:21:09.107Z,5.27
2023-03-12T07:23:37.445Z,5.60
2023-03-12T07:26:06.443Z,8.20
2023-03-12T07:28:34.728Z,5.67
2023-03-12T07:31:05.640Z,8.87
2023-03-12T07:33:34.423Z,5.97
2023-03-12T07:36:02.992Z,4.40
2023-03-12T07:38:31.569Z,8.50
2023-03-12T07:41:00.422Z,3.77
2023-03-12T07:43:29.136Z,2.40
2023-03-12T07:45:57.539Z,4.93
2023-03-12T07:48:27.404Z,2.93
2023-03-12T07:50:55.716Z,3.67
2023-03-12T07:53:24.054Z,3.07
2023-03-12T07:55:52.548Z,2.30
2023-03-12T07:58:20.961Z,5.77
2023-03-12T08:00:49.482Z,6.77
2023-03-12T08:03:18.198Z,2.80
2023-03-12T08:05:57.926Z,3.20
2023-03-12T08:08:26.494Z,3.80
2023-03-12T08:10:55.380Z,3.93
2023-03-12T08:13:24.442Z,3.50
2023-03-12T08:15:54.087Z,5.40
2023-03-12T08:18:23.289Z,6.27
2023-03-12T08:20:54.076Z,5.90
2023-03-12T08:23:23.224Z,6.03
2023-03-12T08:25:52.261Z,7.10
2023-03-12T08:28:22.803Z,6.80
2023-03-12T08:30:53.087Z,6.17
2023-03-12T08:33:21.811Z,4.57
2023-03-12T08:35:52.351Z,6.63
2023-03-12T08:38:21.225Z,6.37
2023-03-12T08:40:56.424Z,4.63
2023-03-12T08:43:24.759Z,5.67
2023-03-12T08:45:56.117Z,15.20
2023-03-12T08:48:24.493Z,4.17
2023-03-12T08:50:56.882Z,6.60
2023-03-12T08:53:25.270Z,8.07
2023-03-12T08:55:54.269Z,6.40
2023-03-12T08:58:23.244Z,5.83
2023-03-12T09:00:51.876Z,6.03
2023-03-12T09:03:21.705Z,6.30
2023-03-12T09:05:50.988Z,7.97
2023-03-12T09:08:20.672Z,6.37
2023-03-12T09:10:50.759Z,4.80
2023-03-12T09:13:19.228Z,5.27
2023-03-12T09:15:47.671Z,3.60
2023-03-12T09:18:16.318Z,4.30
2023-03-12T09:20:45.273Z,5.00
2023-03-12T09:23:13.691Z,6.10
2023-03-12T09:25:47.308Z,3.63
2023-03-12T09:28:16.689Z,7.93
2023-03-12T09:30:45.271Z,8.10
2023-03-12T09:33:15.227Z,3.03
2023-03-12T09:35:43.854Z,5.47
2023-03-12T09:38:15.216Z,8.80
2023-03-12T09:40:48.677Z,13.83
2023-03-12T09:43:23.668Z,7.13
2023-03-12T09:45:52.805Z,7.03
2023-03-12T09:48:38.639Z,5.47
2023-03-12T09:51:18.060Z,6.27
2023-03-12T09:53:49.695Z,5.27
2023-03-12T09:56:21.925Z,8.93
2023-03-12T09:58:54.663Z,4.97
2023-03-12T10:01:37.739Z,6.93
2023-03-12T10:04:25.309Z,6.20
2023-03-12T10:07:02.197Z,7.03
2023-03-12T10:09:57.199Z,4.70
2023-03-12T10:12:34.194Z,5.60
2023-03-12T10:15:25.368Z,5.20
2023-03-12T10:18:06.406Z,5.97
2023-03-12T10:20:53.483Z,7.07
2023-03-12T10:23:33.309Z,8.80
2023-03-12T10:26:07.835Z,7.33
2023-03-12T10:28:42.312Z,7.83
2023-03-12T10:31:19.602Z,5.23
2023-03-12T10:33:52.444Z,13.97
2023-03-12T10:36:23.947Z,6.97
2023-03-12T10:38:52.268Z,7.93
2023-03-12T10:41:22.933Z,5.60
2023-03-12T10:43:54.681Z,5.27
2023-03-12T10:46:47.884Z,5.00
2023-03-12T10:49:34.044Z,4.83
2023-03-12T10:52:06.322Z,6.37
2023-03-12T10:54:37.744Z,7.00
2023-03-12T10:57:06.711Z,5.10
2023-03-12T10:59:38.260Z,6.27
2023-03-12T11:02:31.988Z,4.87
2023-03-12T11:05:02.175Z,6.20
2023-03-12T11:07:33.550Z,7.93
2023-03-12T11:10:20.968Z,6.13
2023-03-12T11:13:01.495Z,5.60
2023-03-12T11:15:39.090Z,4.53
2023-03-12T11:18:25.327Z,4.50
2023-03-12T11:20:56.572Z,5.60
2023-03-12T11:23:28.388Z,5.17
2023-03-12T11:26:00.594Z,10.63
2023-03-12T11:28:37.752Z,11.10
2023-03-12T11:31:11.370Z,4.87
2023-03-12T11:33:39.732Z,6.00
2023-03-12T11:36:30.330Z,11.70
2023-03-12T11:39:08.434Z,7.10
2023-03-12T11:42:01.929Z,3.57
2023-03-12T11:44:39.412Z,4.63
2023-03-12T11:47:24.600Z,4.50
2023-03-12T11:50:16.364Z,6.47
2023-03-12T11:52:56.614Z,4.63
2023-03-12T11:55:38.027Z,4.97
2023-03-12T11:58:25.962Z,8.57
2023-03-12T12:00:58.386Z,6.33
2023-03-12T12:03:56.255Z,5.77
2023-03-12T12:06:32.967Z,5.57
2023-03-12T12:09:14.348Z,4.80
2023-03-12T12:11:54.693Z,4.43
2023-03-12T12:14:35.992Z,6.33
2023-03-12T12:17:14.919Z,5.33
2023-03-12T12:20:00.476Z,5.13
2023-03-12T12:22:40.148Z,5.73
2023-03-12T12:25:26.533Z,6.83
2023-03-12T12:28:14.383Z,5.77
2023-03-12T12:30:56.025Z,3.93
2023-03-12T12:33:40.881Z,4.67
2023-03-12T12:36:10.564Z,6.10
2023-03-12T12:38:46.057Z,4.80
2023-03-12T12:41:18.022Z,5.03
2023-03-12T12:43:50.473Z,4.50
2023-03-12T12:46:21.262Z,6.47
2023-03-12T12:48:53.949Z,4.50
2023-03-12T12:51:25.948Z,5.13
2023-03-12T12:54:02.512Z,5.97
2023-03-12T12:56:34.540Z,7.00
2023-03-12T12:59:31.785Z,5.37
2023-03-12T13:02:02.357Z,5.00
2023-03-12T13:04:35.039Z,7.23
2023-03-12T13:07:05.563Z,7.67
2023-03-12T13:09:41.876Z,5.77
2023-03-12T13:12:17.521Z,5.70
2023-03-12T13:14:47.428Z,52.23
2023-03-12T13:18:02.516Z,9.48
2023-03-12T13:20:35.650Z,4.45
2023-03-12T13:23:25.143Z,11.20
2023-03-12T13:26:02.373Z,3.87
2023-03-12T13:28:37.408Z,4.95
2023-03-12T13:31:39.398Z,4.65
2023-03-12T13:34:41.514Z,3.78
2023-03-12T13:37:22.116Z,4.32
2023-03-12T13:39:52.110Z,3.17
2023-03-12T13:42:43.009Z,2.47
2023-03-12T13:45:27.183Z,3.25
2023-03-12T13:48:00.104Z,22.38
2023-03-12T13:50:29.647Z,6.45
2023-03-12T13:53:05.466Z,5.47
2023-03-12T13:55:35.562Z,8.38
2023-03-12T13:58:10.003Z,10.65
2023-03-12T14:00:42.601Z,12.82
2023-03-12T14:03:17.792Z,5.13
2023-03-12T14:05:51.779Z,4.63
2023-03-12T14:08:40.526Z,6.70
2023-03-12T14:11:34.718Z,3.53
2023-03-12T14:14:34.198Z,4.82
2023-03-12T14:17:05.473Z,2.53
2023-03-12T14:19:36.537Z,3.53
2023-03-12T14:22:08.717Z,3.05
2023-03-12T14:24:40.964Z,2.50
2023-03-12T14:27:15.864Z,4.18
2023-03-12T14:29:49.598Z,5.57
2023-03-12T14:32:21.024Z,27.65
2023-03-12T14:34:55.531Z,18.40
2023-03-12T14:37:29.296Z,3.47
2023-03-12T14:40:00.698Z,4.60
2023-03-12T14:42:30.981Z,6.75
2023-03-12T14:45:04.766Z,6.38
2023-03-12T14:47:41.402Z,4.85
2023-03-12T14:50:18.967Z,6.45
2023-03-12T14:52:47.277Z,4.20
2023-03-12T14:55:18.684Z,8.15
2023-03-12T14:57:47.304Z,6.00
2023-03-12T15:00:24.674Z,6.72
2023-03-12T15:02:55.874Z,6.85
2023-03-12T15:05:25.013Z,4.65
2023-03-12T15:07:57.626Z,3.63
2023-03-12T15:10:28.002Z,4.75
2023-03-12T15:12:58.938Z,6.40
2023-03-12T15:15:37.813Z,4.50
2023-03-12T15:18:08.705Z,3.73
2023-03-12T15:20:37.627Z,4.20
2023-03-12T15:23:07.020Z,4.63
2023-03-12T15:25:36.233Z,3.13
2023-03-12T15:28:08.423Z,6.03
2023-03-12T15:30:40.003Z,4.77
2023-03-12T15:33:12.986Z,3.77
2023-03-12T15:35:43.966Z,4.73
2023-03-12T15:38:17.192Z,5.00
2023-03-12T15:40:51.220Z,6.17
2023-03-12T15:43:21.933Z,6.17
2023-03-12T15:46:00.024Z,6.17
2023-03-12T15:48:31.344Z,4.70
2023-03-12T15:51:00.341Z,7.93
2023-03-12T15:53:31.664Z,6.57
2023-03-12T15:56:05.624Z,4.93
2023-03-12T15:58:35.628Z,7.30
2023-03-12T16:01:15.874Z,5.87
2023-03-12T16:03:46.456Z,5.30
2023-03-12T16:06:17.299Z,6.77
2023-03-12T16:08:49.765Z,5.17
2023-03-12T16:11:20.718Z,7.40
2023-03-12T16:13:50.701Z,7.50
2023-03-12T16:16:20.839Z,9.07
2023-03-12T16:18:49.223Z,11.80
2023-03-12T16:21:17.578Z,7.23
2023-03-12T16:23:46.000Z,12.10
2023-03-12T16:26:15.614Z,15.83
2023-03-12T16:28:44.128Z,14.77
2023-03-12T16:31:13.701Z,13.37
2023-03-12T16:33:43.777Z,13.23
2023-03-12T16:36:17.021Z,10.50
2023-03-12T16:38:45.876Z,9.63
2023-03-12T16:41:16.640Z,18.80
2023-03-12T16:43:49.714Z,15.27
2023-03-12T16:46:20.231Z,12.50
2023-03-12T16:48:53.152Z,16.40
2023-03-12T16:51:21.916Z,11.67
2023-03-12T16:54:01.973Z,11.67
2023-03-12T16:56:37.372Z,8.90
2023-03-12T16:59:08.371Z,8.57
2023-03-12T17:01:38.152Z,8.77
2023-03-12T17:04:07.870Z,8.23
2023-03-12T17:06:36.874Z,9.87
2023-03-12T17:09:06.101Z,16.07
2023-03-12T17:11:34.514Z,16.70
2023-03-12T17:14:05.885Z,15.17
2023-03-12T17:16:34.146Z,12.73
2023-03-12T17:19:04.052Z,13.03
2023-03-12T17:21:33.772Z,17.80
2023-03-12T17:24:02.101Z,14.37
2023-03-12T17:26:30.433Z,14.00
2023-03-12T17:28:58.777Z,11.67
2023-03-12T17:31:27.174Z,11.10
2023-03-12T17:33:55.563Z,11.33
2023-03-12T17:36:23.995Z,11.67
2023-03-12T17:38:53.632Z,11.70
2023-03-12T17:41:26.976Z,19.77
2023-03-12T17:43:58.562Z,8.70
2023-03-12T17:46:26.986Z,14.57
2023-03-12T17:48:55.357Z,12.80
2023-03-12T17:51:23.862Z,18.83
2023-03-12T17:53:53.557Z,17.90
2023-03-12T17:56:21.885Z,13.43
2023-03-12T17:58:50.328Z,10.63
2023-03-12T18:01:19.134Z,16.63
2023-03-12T18:03:47.613Z,8.83
2023-03-12T18:06:17.072Z,18.73
2023-03-12T18:08:47.015Z,15.47
2023-03-12T18:11:16.959Z,14.53
2023-03-12T18:13:45.224Z,16.43
2023-03-12T18:16:13.699Z,20.17
2023-03-12T18:18:42.132Z,21.30
2023-03-12T18:21:10.446Z,18.97
2023-03-12T18:23:38.718Z,18.93
2023-03-12T18:26:07.275Z,18.10
2023-03-12T18:28:37.001Z,20.13
2023-03-12T18:31:05.580Z,16.23
2023-03-12T18:33:35.021Z,15.63
2023-03-12T18:36:03.962Z,17.83
2023-03-12T18:38:32.973Z,18.93
2023-03-12T18:41:06.670Z,17.93
2023-03-12T18:43:36.896Z,16.97
2023-03-12T18:46:06.453Z,17.47
2023-03-12T18:48:34.873Z,15.40
2023-03-12T18:51:03.458Z,19.73
2023-03-12T18:53:33.233Z,19.70
2023-03-12T18:56:01.578Z,16.50
2023-03-12T18:58:30.286Z,14.73
2023-03-12T19:01:02.030Z,23.60
2023-03-12T19:03:33.917Z,20.13
2023-03-12T19:06:04.418Z,21.53
2023-03-12T19:08:32.766Z,19.97
2023-03-12T19:11:01.683Z,25.87
2023-03-12T19:13:29.975Z,23.50
2023-03-12T19:16:04.539Z,22.67
2023-03-12T19:18:33.107Z,21.60
2023-03-12T19:21:02.364Z,19.80
2023-03-12T19:23:31.116Z,20.23
2023-03-12T19:25:59.437Z,19.50
2023-03-12T19:28:27.761Z,14.97
2023-03-12T19:31:01.937Z,15.57
2023-03-12T19:33:30.591Z,16.20
2023-03-12T19:35:59.205Z,14.43
2023-03-12T19:38:27.724Z,17.10
2023-03-12T19:40:57.231Z,17.60
2023-03-12T19:43:26.169Z,14.50
2023-03-12T19:45:55.843Z,13.83
2023-03-12T19:48:26.360Z,13.60
2023-03-12T19:50:56.040Z,15.67
2023-03-12T19:53:24.946Z,16.43
2023-03-12T19:55:53.304Z,18.17
2023-03-12T19:58:21.651Z,14.50
2023-03-12T20:00:50.533Z,22.20
2023-03-12T20:03:20.693Z,22.70
2023-03-12T20:05:51.097Z,17.43
2023-03-12T20:08:21.074Z,15.63
2023-03-12T20:10:49.915Z,17.60
2023-03-12T20:13:18.711Z,15.67
2023-03-12T20:15:48.386Z,25.07
2023-03-12T20:18:17.576Z,16.27
2023-03-12T20:20:47.592Z,16.60
2023-03-12T20:23:17.282Z,15.43
2023-03-12T20:25:48.916Z,19.27
2023-03-12T20:28:18.368Z,15.10
2023-03-12T20:30:46.684Z,18.57
2023-03-12T20:33:15.013Z,15.20
2023-03-12T20:35:43.425Z,18.30
2023-03-12T20:38:11.893Z,15.33
2023-03-12T20:40:45.402Z,15.33
2023-03-12T20:43:13.804Z,15.60
2023-03-12T20:45:42.326Z,17.97
2023-03-12T20:48:12.157Z,13.27
2023-03-12T20:50:40.406Z,14.20
2023-03-12T20:53:09.065Z,13.43
2023-03-12T20:55:39.603Z,14.03
2023-03-12T20:58:09.420Z,13.77
2023-03-12T21:00:37.781Z,12.43
2023-03-12T21:03:06.033Z,12.30
2023-03-12T21:05:34.413Z,13.70
2023-03-12T21:08:02.711Z,12.73
2023-03-12T21:10:31.692Z,16.80
2023-03-12T21:13:00.187Z,18.63
2023-03-12T21:15:29.898Z,14.57
2023-03-12T21:17:58.203Z,17.17
2023-03-12T21:20:26.659Z,14.20
2023-03-12T21:22:54.941Z,14.43
2023-03-12T21:25:24.361Z,12.17
2023-03-12T21:27:52.693Z,12.63
2023-03-12T21:30:21.350Z,16.20
2023-03-12T21:32:51.162Z,13.60
2023-03-12T21:35:20.089Z,14.30
2023-03-12T21:37:48.453Z,12.37
2023-03-12T21:40:17.742Z,14.73
2023-03-12T21:42:46.033Z,13.60
2023-03-12T21:45:14.343Z,15.03
2023-03-12T21:47:42.677Z,14.73
2023-03-12T21:50:13.202Z,21.77
2023-03-12T21:52:43.934Z,19.47
2023-03-12T21:55:12.553Z,17.80
2023-03-12T21:57:40.892Z,19.63
2023-03-12T22:00:12.967Z,26.73
2023-03-12T22:02:41.840Z,22.57
2023-03-12T22:05:12.629Z,19.77
2023-03-12T22:07:41.154Z,23.43
2023-03-12T22:10:12.079Z,29.53
2023-03-12T22:12:40.621Z,26.30
2023-03-12T22:15:10.103Z,26.63
2023-03-12T22:17:38.401Z,33.23
2023-03-12T22:20:08.023Z,25.30
2023-03-12T22:22:37.759Z,26.33
2023-03-12T22:25:06.799Z,25.43
2023-03-12T22:27:35.116Z,30.80
2023-03-12T22:30:03.430Z,27.50
2023-03-12T22:32:32.372Z,32.00
2023-03-12T22:35:01.916Z,32.47
2023-03-12T22:37:30.190Z,32.67
2023-03-12T22:40:01.591Z,32.73
2023-03-12T22:42:29.970Z,28.07
2023-03-12T22:44:58.231Z,27.70
2023-03-12T22:47:26.546Z,31.63
2023-03-12T22:49:57.652Z,31.83
2023-03-12T22:52:25.999Z,30.73
2023-03-12T22:54:54.295Z,27.60
2023-03-12T22:57:24.082Z,27.23
2023-03-12T22:59:52.366Z,27.63
2023-03-12T23:02:20.683Z,28.53
2023-03-12T23:04:49.087Z,26.03
2023-03-12T23:07:17.709Z,30.83
2023-03-12T23:09:46.478Z,26.00
2023-03-12T23:12:14.779Z,27.00
2023-03-12T23:14:44.777Z,25.57
2023-03-12T23:17:13.048Z,26.70
2023-03-12T23:19:42.795Z,28.80
2023-03-12T23:22:11.272Z,26.57
2023-03-12T23:24:39.594Z,25.77
2023-03-12T23:27:08.189Z,23.93
2023-03-12T23:29:36.567Z,29.87
2023-03-12T23:32:07.227Z,29.83
2023-03-12T23:34:35.991Z,30.20
2023-03-12T23:37:04.448Z,31.07
2023-03-12T23:39:35.352Z,27.53
2023-03-12T23:42:08.078Z,25.50
2023-03-12T23:44:36.497Z,28.10
2023-03-12T23:47:06.470Z,25.27
2023-03-12T23:49:35.188Z,30.07
2023-03-12T23:52:04.370Z,29.33
2023-03-12T23:54:32.670Z,27.83
2023-03-12T23:57:00.949Z,28.10
2023-03-12T23:59:29.266Z,28.13
